createdAt,value
2023-02-12T00:01:08.960Z,62.47
2023-02-12T00:03:37.105Z,62.44
2023-02-12T00:06:07.221Z,62.16
2023-02-12T00:08:35.627Z,62.51
2023-02-12T00:11:09.258Z,62.22
2023-02-12T00:13:37.783Z,62.53
2023-02-12T00:16:07.444Z,62.68
2023-02-12T00:18:35.448Z,62.46
2023-02-12T00:21:04.109Z,62.45
2023-02-12T00:23:33.733Z,62.46
2023-02-12T00:26:01.804Z,62.57
2023-02-12T00:28:29.797Z,62.76
2023-02-12T00:30:57.883Z,62.83
2023-02-12T00:33:28.112Z,62.92
2023-02-12T00:35:58.429Z,62.62
2023-02-12T00:38:26.568Z,62.44
2023-02-12T00:40:55.966Z,62.56
2023-02-12T00:43:23.959Z,62.90
2023-02-12T00:45:51.961Z,63.11
2023-02-12T00:48:21.242Z,63.05
2023-02-12T00:50:49.834Z,63.02
2023-02-12T00:53:18.248Z,63.34
2023-02-12T00:55:46.534Z,63.39
2023-02-12T00:58:18.811Z,63.17
2023-02-12T01:00:47.128Z,63.05
2023-02-12T01:03:15.170Z,62.70
2023-02-12T01:05:43.178Z,63.31
2023-02-12T01:08:13.585Z,63.43
2023-02-12T01:10:41.965Z,63.78
2023-02-12T01:13:13.953Z,63.28
2023-02-12T01:15:43.891Z,63.36
2023-02-12T01:18:12.565Z,63.57
2023-02-12T01:20:40.909Z,63.30
2023-02-12T01:23:09.035Z,63.22
2023-02-12T01:25:38.798Z,63.55
2023-02-12T01:28:06.829Z,63.07
2023-02-12T01:30:34.801Z,62.99
2023-02-12T01:33:04.175Z,62.82
2023-02-12T01:35:32.139Z,62.83
2023-02-12T01:38:00.119Z,62.86
2023-02-12T01:40:28.439Z,62.96
2023-02-12T01:42:56.749Z,63.47
2023-02-12T01:46:00.167Z,62.77
2023-02-12T01:48:33.672Z,63.26
2023-02-12T01:51:03.915Z,62.88
2023-02-12T01:53:38.352Z,63.38
2023-02-12T01:56:07.668Z,63.10
2023-02-12T01:58:39.276Z,63.12
2023-02-12T02:01:14.745Z,63.20
2023-02-12T02:03:46.824Z,63.21
2023-02-12T02:06:18.704Z,63.63
2023-02-12T02:08:47.594Z,64.00
2023-02-12T02:11:33.510Z,63.64
2023-02-12T02:14:19.280Z,63.86
2023-02-12T02:16:55.368Z,64.09
2023-02-12T02:19:37.913Z,64.05
2023-02-12T02:22:21.966Z,63.84
2023-02-12T02:25:09.724Z,63.94
2023-02-12T02:27:48.630Z,64.29
2023-02-12T02:30:35.408Z,64.96
2023-02-12T02:33:16.636Z,64.36
2023-02-12T02:35:53.646Z,64.19
2023-02-12T02:38:30.030Z,64.67
2023-02-12T02:41:06.391Z,64.71
2023-02-12T02:43:39.456Z,64.01
2023-02-12T02:46:15.339Z,64.68
2023-02-12T02:48:47.820Z,65.17
2023-02-12T02:51:20.380Z,64.35
2023-02-12T02:53:52.783Z,64.79
2023-02-12T02:56:24.029Z,64.38
2023-02-12T02:58:56.338Z,64.52
2023-02-12T03:01:30.646Z,64.51
2023-02-12T03:04:04.714Z,65.17
2023-02-12T03:06:40.175Z,64.89
2023-02-12T03:09:18.411Z,64.44
2023-02-12T03:11:47.292Z,64.69
2023-02-12T03:14:19.743Z,64.25
2023-02-12T03:16:54.282Z,64.94
2023-02-12T03:19:26.203Z,64.69
2023-02-12T03:21:58.357Z,64.83
2023-02-12T03:24:31.872Z,65.21
2023-02-12T03:27:06.046Z,65.15
2023-02-12T03:29:34.331Z,65.06
2023-02-12T03:32:18.992Z,64.97
2023-02-12T03:34:51.583Z,64.48
2023-02-12T03:37:23.399Z,64.59
2023-02-12T03:39:57.715Z,65.00
2023-02-12T03:42:36.547Z,65.10
2023-02-12T03:45:11.357Z,65.04
2023-02-12T03:47:47.401Z,65.16
2023-02-12T03:50:19.137Z,64.92
2023-02-12T03:52:48.298Z,65.39
2023-02-12T03:55:18.029Z,65.05
2023-02-12T03:57:50.242Z,65.33
2023-02-12T04:00:21.531Z,64.88
2023-02-12T04:02:51.243Z,65.33
2023-02-12T04:05:22.696Z,65.46
2023-02-12T04:07:51.309Z,65.26
2023-02-12T04:10:23.166Z,65.40
2023-02-12T04:12:55.863Z,65.33
2023-02-12T04:15:40.623Z,65.76
2023-02-12T04:18:16.156Z,65.85
2023-02-12T04:20:54.412Z,66.13
2023-02-12T04:23:39.300Z,65.77
2023-02-12T04:26:13.832Z,65.67
2023-02-12T04:28:49.694Z,65.72
2023-02-12T04:31:24.761Z,65.40
2023-02-12T04:34:06.437Z,65.97
2023-02-12T04:36:40.364Z,65.70
2023-02-12T04:39:13.039Z,65.73
2023-02-12T04:41:41.017Z,65.81
2023-02-12T04:44:20.440Z,65.86
2023-02-12T04:46:48.610Z,65.74
2023-02-12T04:49:20.569Z,65.82
2023-02-12T04:51:48.936Z,66.32
2023-02-12T04:54:18.673Z,66.10
2023-02-12T04:56:47.300Z,65.63
2023-02-12T04:59:15.761Z,65.43
2023-02-12T05:01:45.619Z,66.04
2023-02-12T05:04:15.914Z,65.71
2023-02-12T05:06:46.480Z,66.11
2023-02-12T05:09:16.865Z,66.13
2023-02-12T05:11:45.241Z,65.72
2023-02-12T05:14:13.835Z,65.88
2023-02-12T05:16:41.942Z,66.22
2023-02-12T05:19:10.512Z,66.29
2023-02-12T05:21:39.521Z,66.14
2023-02-12T05:24:09.842Z,66.40
2023-02-12T05:26:38.385Z,66.32
2023-02-12T05:29:06.434Z,66.57
2023-02-12T05:31:34.755Z,66.43
2023-02-12T05:34:02.831Z,66.69
2023-02-12T05:36:30.847Z,66.20
2023-02-12T05:39:00.751Z,66.20
2023-02-12T05:41:34.900Z,66.57
2023-02-12T05:44:03.034Z,66.61
2023-02-12T05:46:31.063Z,66.79
2023-02-12T05:48:59.345Z,67.12
2023-02-12T05:51:28.608Z,66.70
2023-02-12T05:53:59.959Z,66.69
2023-02-12T05:56:31.185Z,66.87
2023-02-12T05:59:02.396Z,66.95
2023-02-12T06:01:33.097Z,66.85
2023-02-12T06:04:01.443Z,66.36
2023-02-12T06:06:29.954Z,66.91
2023-02-12T06:08:58.472Z,66.45
2023-02-12T06:11:26.697Z,66.40
2023-02-12T06:13:56.059Z,66.39
2023-02-12T06:16:26.294Z,66.42
2023-02-12T06:18:56.049Z,66.85
2023-02-12T06:21:26.553Z,67.03
2023-02-12T06:23:54.782Z,66.56
2023-02-12T06:26:23.978Z,67.01
2023-02-12T06:28:52.255Z,66.67
2023-02-12T06:31:24.571Z,67.12
2023-02-12T06:33:53.446Z,66.85
2023-02-12T06:36:22.218Z,66.74
2023-02-12T06:38:50.322Z,67.35
2023-02-12T06:41:18.520Z,66.96
2023-02-12T06:43:46.529Z,66.98
2023-02-12T06:46:15.134Z,67.61
2023-02-12T06:48:44.531Z,67.53
2023-02-12T06:51:18.944Z,67.55
2023-02-12T06:53:46.935Z,67.69
2023-02-12T06:56:15.571Z,67.76
2023-02-12T06:58:46.478Z,66.93
2023-02-12T07:01:17.950Z,66.63
2023-02-12T07:03:50.210Z,66.99
2023-02-12T07:06:18.486Z,67.07
2023-02-12T07:08:46.709Z,66.99
2023-02-12T07:11:15.041Z,67.35
2023-02-12T07:13:43.659Z,66.89
2023-02-12T07:16:13.582Z,67.73
2023-02-12T07:18:41.882Z,67.83
2023-02-12T07:21:12.996Z,67.75
2023-02-12T07:23:41.683Z,67.51
2023-02-12T07:26:13.324Z,67.07
2023-02-12T07:28:41.716Z,67.40
2023-02-12T07:31:11.761Z,67.83
2023-02-12T07:33:40.830Z,67.20
2023-02-12T07:36:12.951Z,67.40
2023-02-12T07:38:40.998Z,67.64
2023-02-12T07:41:12.197Z,67.83
2023-02-12T07:43:41.253Z,67.26
2023-02-12T07:46:14.459Z,67.29
2023-02-12T07:48:42.544Z,67.65
2023-02-12T07:51:14.533Z,68.86
2023-02-12T07:53:43.091Z,68.39
2023-02-12T07:56:13.057Z,68.41
2023-02-12T07:58:42.749Z,68.05
2023-02-12T08:01:16.555Z,67.27
2023-02-12T08:03:45.739Z,67.40
2023-02-12T08:06:17.580Z,66.91
2023-02-12T08:08:46.066Z,67.43
2023-02-12T08:11:16.641Z,68.04
2023-02-12T08:13:44.816Z,69.26
2023-02-12T08:16:14.889Z,69.17
2023-02-12T08:18:43.494Z,68.96
2023-02-12T08:21:13.139Z,67.92
2023-02-12T08:23:43.597Z,66.96
2023-02-12T08:26:13.491Z,66.33
2023-02-12T08:28:45.129Z,65.84
2023-02-12T08:31:15.575Z,65.22
2023-02-12T08:33:45.210Z,65.14
2023-02-12T08:36:15.476Z,65.08
2023-02-12T08:38:46.035Z,64.90
2023-02-12T08:41:16.583Z,65.26
2023-02-12T08:43:45.308Z,65.34
2023-02-12T08:46:15.373Z,65.94
2023-02-12T08:48:44.052Z,66.31
2023-02-12T08:51:14.080Z,67.09
2023-02-12T08:53:45.785Z,67.33
2023-02-12T08:56:15.676Z,66.89
2023-02-12T08:58:44.494Z,66.77
2023-02-12T09:01:16.177Z,66.46
2023-02-12T09:03:44.955Z,66.23
2023-02-12T09:06:13.876Z,65.88
2023-02-12T09:08:42.266Z,65.68
2023-02-12T09:11:16.540Z,66.07
2023-02-12T09:13:46.111Z,66.16
2023-02-12T09:16:14.809Z,65.61
2023-02-12T09:18:43.505Z,65.93
2023-02-12T09:21:13.613Z,65.61
2023-02-12T09:23:42.153Z,66.03
2023-02-12T09:26:15.247Z,66.40
2023-02-12T09:28:43.821Z,65.61
2023-02-12T09:31:13.824Z,65.27
2023-02-12T09:33:42.911Z,65.39
2023-02-12T09:36:13.452Z,65.04
2023-02-12T09:38:42.005Z,65.35
2023-02-12T09:41:42.660Z,65.49
2023-02-12T09:44:16.439Z,65.27
2023-02-12T09:46:50.038Z,65.54
2023-02-12T09:49:29.521Z,65.00
2023-02-12T09:51:59.192Z,65.59
2023-02-12T09:54:32.731Z,64.81
2023-02-12T09:57:07.756Z,64.19
2023-02-12T09:59:40.376Z,64.38
2023-02-12T10:02:13.871Z,63.34
2023-02-12T10:04:58.738Z,63.58
2023-02-12T10:07:41.558Z,63.17
2023-02-12T10:10:25.351Z,63.49
2023-02-12T10:12:58.998Z,63.51
2023-02-12T10:15:36.560Z,62.46
2023-02-12T10:18:22.701Z,62.69
2023-02-12T10:21:06.276Z,62.30
2023-02-12T10:24:04.686Z,63.06
2023-02-12T10:26:36.946Z,62.40
2023-02-12T10:29:15.963Z,63.04
2023-02-12T10:31:47.029Z,63.11
2023-02-12T10:34:19.724Z,61.20
2023-02-12T10:36:49.686Z,60.36
2023-02-12T10:39:23.602Z,62.05
2023-02-12T10:41:59.304Z,61.24
2023-02-12T10:44:29.635Z,62.31
2023-02-12T10:46:57.620Z,62.06
2023-02-12T10:49:26.007Z,61.02
2023-02-12T10:52:20.461Z,60.94
2023-02-12T10:54:50.458Z,60.31
2023-02-12T10:57:23.101Z,60.56
2023-02-12T10:59:54.580Z,61.72
2023-02-12T11:02:26.083Z,60.91
2023-02-12T11:04:55.585Z,60.52
2023-02-12T11:07:24.802Z,59.76
2023-02-12T11:09:57.237Z,60.08
2023-02-12T11:12:32.882Z,60.16
2023-02-12T11:15:05.516Z,59.75
2023-02-12T11:17:37.644Z,59.35
2023-02-12T11:20:22.479Z,59.55
2023-02-12T11:22:56.585Z,58.84
2023-02-12T11:25:26.617Z,59.02
2023-02-12T11:28:08.190Z,57.98
2023-02-12T11:30:37.609Z,58.19
2023-02-12T11:33:23.251Z,58.08
2023-02-12T11:35:54.004Z,58.87
2023-02-12T11:38:26.106Z,58.64
2023-02-12T11:40:59.107Z,57.95
2023-02-12T11:43:31.041Z,57.52
2023-02-12T11:46:01.942Z,58.13
2023-02-12T11:48:33.950Z,57.57
2023-02-12T11:51:05.486Z,58.00
2023-02-12T11:53:35.954Z,57.66
2023-02-12T11:56:06.772Z,57.44
2023-02-12T11:58:34.856Z,56.67
2023-02-12T12:01:13.092Z,56.38
2023-02-12T12:03:49.323Z,56.04
2023-02-12T12:06:25.426Z,56.03
2023-02-12T12:08:59.604Z,56.35
2023-02-12T12:11:35.281Z,55.47
2023-02-12T12:14:09.372Z,55.85
2023-02-12T12:17:06.261Z,55.42
2023-02-12T12:19:54.461Z,54.62
2023-02-12T12:22:37.760Z,53.38
2023-02-12T12:25:13.917Z,54.09
2023-02-12T12:28:09.615Z,53.95
2023-02-12T12:30:58.846Z,51.98
2023-02-12T12:33:37.487Z,52.92
2023-02-12T12:36:36.239Z,53.94
2023-02-12T12:39:17.367Z,53.79
2023-02-12T12:41:57.449Z,53.39
2023-02-12T12:44:34.865Z,53.27
2023-02-12T12:47:22.461Z,52.03
2023-02-12T12:50:01.564Z,51.27
2023-02-12T12:52:51.484Z,50.67
2023-02-12T12:55:47.991Z,50.55
2023-02-12T12:58:28.556Z,51.36
2023-02-12T13:01:12.326Z,49.56
2023-02-12T13:04:02.299Z,49.54
2023-02-12T13:06:57.347Z,49.22
2023-02-12T13:09:38.238Z,49.96
2023-02-12T13:12:29.368Z,49.61
2023-02-12T13:15:03.187Z,49.35
2023-02-12T13:17:39.552Z,49.56
2023-02-12T13:20:15.325Z,50.21
2023-02-12T13:22:52.173Z,50.16
2023-02-12T13:25:29.857Z,50.08
2023-02-12T13:28:00.259Z,51.04
2023-02-12T13:30:31.788Z,50.36
2023-02-12T13:33:08.354Z,50.95
2023-02-12T13:35:42.410Z,50.61
2023-02-12T13:38:18.837Z,49.90
2023-02-12T13:40:49.701Z,50.75
2023-02-12T13:43:32.711Z,50.85
2023-02-12T13:46:09.564Z,51.08
2023-02-12T13:48:49.294Z,50.01
2023-02-12T13:51:27.238Z,49.70
2023-02-12T13:54:07.754Z,49.31
2023-02-12T13:56:42.501Z,49.95
2023-02-12T13:59:45.909Z,50.21
2023-02-12T14:02:52.060Z,50.68
2023-02-12T14:05:26.926Z,49.01
2023-02-12T14:07:57.781Z,50.04
2023-02-12T14:10:31.340Z,48.63
2023-02-12T14:13:11.739Z,49.02
2023-02-12T14:15:44.568Z,47.93
2023-02-12T14:18:34.010Z,46.33
2023-02-12T14:21:38.166Z,47.51
2023-02-12T14:24:45.624Z,47.73
2023-02-12T14:27:39.077Z,46.57
2023-02-12T14:30:32.810Z,45.64
2023-02-12T14:33:23.456Z,44.25
2023-02-12T14:36:15.597Z,42.92
2023-02-12T14:39:03.201Z,44.76
2023-02-12T14:41:41.840Z,45.14
2023-02-12T14:44:44.470Z,44.70
2023-02-12T14:47:51.244Z,44.20
2023-02-12T14:50:24.527Z,45.00
2023-02-12T14:53:01.325Z,44.20
2023-02-12T14:55:34.403Z,44.81
2023-02-12T14:58:05.931Z,45.27
2023-02-12T15:00:40.110Z,45.00
2023-02-12T15:03:26.572Z,44.10
2023-02-12T15:06:04.011Z,44.31
2023-02-12T15:08:44.799Z,44.17
2023-02-12T15:11:28.114Z,44.75
2023-02-12T15:14:01.130Z,45.64
2023-02-12T15:16:35.680Z,43.91
2023-02-12T15:19:13.517Z,44.82
2023-02-12T15:21:43.459Z,45.23
2023-02-12T15:24:13.744Z,45.66
2023-02-12T15:26:45.377Z,45.08
2023-02-12T15:29:22.193Z,45.65
2023-02-12T15:31:55.281Z,44.22
2023-02-12T15:34:25.896Z,45.43
2023-02-12T15:37:02.133Z,44.07
2023-02-12T15:39:39.104Z,45.03
2023-02-12T15:42:23.829Z,45.46
2023-02-12T15:44:51.825Z,45.15
2023-02-12T15:47:24.765Z,45.16
2023-02-12T15:50:00.287Z,44.82
2023-02-12T15:52:37.511Z,45.13
2023-02-12T15:55:07.432Z,45.05
2023-02-12T15:57:35.489Z,45.57
2023-02-12T16:00:08.987Z,45.51
2023-02-12T16:02:43.135Z,45.96
2023-02-12T16:05:16.723Z,46.37
2023-02-12T16:07:47.802Z,46.38
2023-02-12T16:10:17.388Z,46.84
2023-02-12T16:12:46.019Z,47.41
2023-02-12T16:15:29.004Z,47.28
2023-02-12T16:17:58.464Z,47.42
2023-02-12T16:20:28.741Z,47.45
2023-02-12T16:22:58.498Z,46.60
2023-02-12T16:25:29.561Z,47.47
2023-02-12T16:28:02.935Z,48.38
2023-02-12T16:30:32.892Z,49.09
2023-02-12T16:33:02.213Z,48.54
2023-02-12T16:35:32.561Z,49.68
2023-02-12T16:38:41.958Z,49.61
2023-02-12T16:41:23.555Z,49.93
2023-02-12T16:44:12.744Z,49.86
2023-02-12T16:46:47.227Z,51.63
2023-02-12T16:49:18.524Z,51.74
2023-02-12T16:51:47.604Z,52.26
2023-02-12T16:54:37.575Z,52.44
2023-02-12T16:57:05.708Z,52.59
2023-02-12T16:59:34.592Z,52.94
2023-02-12T17:02:05.291Z,53.11
2023-02-12T17:04:33.256Z,53.48
2023-02-12T17:07:01.293Z,53.58
2023-02-12T17:09:30.077Z,53.90
2023-02-12T17:11:59.423Z,54.43
2023-02-12T17:14:27.344Z,54.30
2023-02-12T17:16:55.394Z,54.62
2023-02-12T17:19:25.820Z,54.78
2023-02-12T17:21:54.593Z,55.06
2023-02-12T17:24:25.418Z,55.33
2023-02-12T17:26:53.643Z,54.92
2023-02-12T17:29:25.959Z,55.25
2023-02-12T17:31:56.203Z,55.17
2023-02-12T17:34:24.972Z,55.37
2023-02-12T17:36:53.720Z,55.33
2023-02-12T17:39:22.161Z,55.53
2023-02-12T17:41:51.563Z,55.62
2023-02-12T17:44:19.552Z,55.19
2023-02-12T17:46:48.926Z,54.95
2023-02-12T17:49:16.875Z,55.04
2023-02-12T17:51:44.838Z,54.91
2023-02-12T17:54:14.084Z,54.98
2023-02-12T17:56:42.059Z,55.10
2023-02-12T17:59:10.931Z,55.56
2023-02-12T18:01:40.493Z,55.68
2023-02-12T18:04:09.897Z,54.98
2023-02-12T18:06:37.931Z,55.02
2023-02-12T18:09:05.885Z,54.94
2023-02-12T18:11:34.190Z,54.70
2023-02-12T18:14:02.929Z,55.23
2023-02-12T18:16:34.924Z,55.53
2023-02-12T18:19:06.914Z,55.11
2023-02-12T18:21:36.432Z,55.12
2023-02-12T18:24:05.010Z,55.24
2023-02-12T18:26:34.146Z,55.08
2023-02-12T18:29:02.931Z,55.20
2023-02-12T18:31:31.350Z,55.12
2023-02-12T18:34:00.149Z,54.82
2023-02-12T18:36:28.149Z,55.25
2023-02-12T18:38:57.524Z,55.06
2023-02-12T18:41:27.297Z,55.39
2023-02-12T18:43:55.708Z,55.75
2023-02-12T18:46:28.767Z,55.03
2023-02-12T18:48:57.519Z,55.59
2023-02-12T18:51:28.820Z,55.38
2023-02-12T18:54:01.504Z,55.54
2023-02-12T18:56:30.527Z,55.40
2023-02-12T18:58:59.931Z,55.28
2023-02-12T19:01:29.351Z,55.37
2023-02-12T19:04:00.160Z,55.32
2023-02-12T19:06:29.569Z,55.83
2023-02-12T19:09:00.150Z,55.93
2023-02-12T19:11:29.144Z,56.44
2023-02-12T19:13:57.409Z,57.81
2023-02-12T19:16:26.145Z,58.44
2023-02-12T19:18:58.249Z,58.66
2023-02-12T19:21:27.075Z,59.34
2023-02-12T19:23:55.436Z,58.77
2023-02-12T19:26:30.246Z,59.14
2023-02-12T19:28:58.902Z,59.18
2023-02-12T19:31:29.723Z,59.39
2023-02-12T19:33:59.638Z,59.34
2023-02-12T19:36:29.107Z,59.52
2023-02-12T19:38:57.412Z,59.16
2023-02-12T19:41:28.725Z,58.81
2023-02-12T19:43:59.335Z,59.78
2023-02-12T19:46:29.949Z,59.73
2023-02-12T19:49:00.993Z,59.98
2023-02-12T19:51:30.714Z,59.99
2023-02-12T19:54:01.663Z,59.61
2023-02-12T19:56:31.338Z,60.05
2023-02-12T19:59:00.104Z,59.70
2023-02-12T20:01:28.818Z,59.36
2023-02-12T20:03:57.035Z,60.24
2023-02-12T20:06:27.564Z,60.29
2023-02-12T20:08:56.078Z,59.83
2023-02-12T20:11:26.224Z,60.29
2023-02-12T20:13:56.274Z,60.60
2023-02-12T20:16:25.774Z,60.38
2023-02-12T20:18:55.672Z,59.94
2023-02-12T20:21:26.813Z,60.13
2023-02-12T20:23:55.261Z,61.10
2023-02-12T20:26:24.608Z,60.90
2023-02-12T20:28:53.123Z,61.60
2023-02-12T20:31:24.780Z,61.18
2023-02-12T20:33:55.738Z,61.04
2023-02-12T20:36:24.513Z,62.16
2023-02-12T20:38:54.268Z,62.29
2023-02-12T20:41:22.217Z,61.93
2023-02-12T20:43:50.455Z,62.04
2023-02-12T20:46:21.404Z,62.02
2023-02-12T20:48:51.062Z,61.55
2023-02-12T20:51:20.893Z,61.53
2023-02-12T20:53:54.502Z,62.06
2023-02-12T20:56:25.405Z,62.91
2023-02-12T20:58:54.070Z,62.08
2023-02-12T21:01:24.729Z,62.57
2023-02-12T21:03:55.613Z,62.74
2023-02-12T21:06:25.758Z,63.23
2023-02-12T21:08:53.804Z,63.10
2023-02-12T21:11:23.570Z,63.47
2023-02-12T21:14:02.158Z,63.44
2023-02-12T21:16:32.864Z,63.28
2023-02-12T21:19:02.723Z,63.27
2023-02-12T21:21:32.374Z,63.38
2023-02-12T21:24:02.212Z,63.27
2023-02-12T21:26:32.112Z,63.44
2023-02-12T21:29:02.173Z,64.23
2023-02-12T21:31:32.467Z,64.37
2023-02-12T21:34:03.619Z,64.55
2023-02-12T21:36:33.167Z,65.26
2023-02-12T21:39:03.012Z,64.71
2023-02-12T21:41:34.518Z,64.58
2023-02-12T21:44:04.395Z,64.46
2023-02-12T21:46:32.730Z,65.33
2023-02-12T21:49:02.433Z,64.73
2023-02-12T21:51:32.090Z,64.93
2023-02-12T21:54:04.730Z,65.52
2023-02-12T21:56:33.041Z,64.94
2023-02-12T21:59:01.328Z,65.47
2023-02-12T22:01:32.274Z,65.94
2023-02-12T22:04:03.527Z,65.58
2023-02-12T22:06:31.923Z,66.30
2023-02-12T22:09:03.404Z,66.39
2023-02-12T22:11:31.397Z,65.45
2023-02-12T22:13:59.372Z,65.87
2023-02-12T22:16:28.896Z,66.00
2023-02-12T22:18:59.325Z,65.67
2023-02-12T22:21:30.368Z,66.02
2023-02-12T22:24:01.046Z,66.12
2023-02-12T22:26:30.852Z,66.22
2023-02-12T22:29:00.745Z,66.37
2023-02-12T22:31:31.901Z,66.87
2023-02-12T22:34:02.051Z,66.95
2023-02-12T22:36:31.928Z,66.56
2023-02-12T22:39:01.619Z,66.77
2023-02-12T22:41:30.364Z,66.91
2023-02-12T22:44:00.270Z,67.13
2023-02-12T22:46:29.023Z,67.78
2023-02-12T22:48:57.005Z,66.99
2023-02-12T22:51:28.493Z,67.02
2023-02-12T22:53:58.509Z,67.23
2023-02-12T22:56:27.194Z,67.31
2023-02-12T22:58:56.822Z,67.29
2023-02-12T23:01:25.554Z,67.41
2023-02-12T23:03:53.976Z,67.91
2023-02-12T23:06:23.636Z,67.83
2023-02-12T23:08:52.986Z,68.01
2023-02-12T23:11:24.463Z,67.93
2023-02-12T23:13:52.666Z,67.69
2023-02-12T23:16:20.713Z,67.67
2023-02-12T23:18:48.985Z,68.26
2023-02-12T23:21:17.857Z,68.13
2023-02-12T23:23:45.792Z,67.80
2023-02-12T23:26:13.777Z,68.20
2023-02-12T23:28:43.176Z,67.56
2023-02-12T23:31:11.268Z,68.03
2023-02-12T23:33:39.292Z,67.53
2023-02-12T23:36:08.101Z,67.79
2023-02-12T23:38:36.064Z,67.88
2023-02-12T23:41:04.306Z,67.67
2023-02-12T23:43:33.383Z,67.77
2023-02-12T23:46:03.808Z,67.80
2023-02-12T23:48:31.788Z,67.84
2023-02-12T23:50:59.909Z,67.85
2023-02-12T23:53:28.058Z,68.04
2023-02-12T23:55:56.037Z,68.10
2023-02-12T23:58:24.181Z,68.15
